CheckWX is a tool to help pilots better visualize weather data.  It is not intended as a substitute for an official pre-flight weather briefing.

19:09:40 UTC

KTOA METAR
Zamperini Field Airport
Torrance, California, USA
Current

23 mins ago

KTOA 161847Z 00000KT 9SM SCT230 17/10 A3013
Observed
Feb-16 @ 18:47 UTC
Visibility
9 SM
Flight Rules
VFR
Cloud Levels
  • Scattered at 23,000' AGL
Temperature
17°C / 63°F
Dewpoint
10°C / 50°F
Humidity
64%
Altimeter
30.13" Hg
Pressure
1020.32 hPa
Previous

1 hour ago

KTOA 161747Z 00000KT 3SM BR FEW003 FEW016 SCT230 14/13 A3014
Observed
Feb-16 @ 17:47 UTC
Visibility
3 SM
Flight Rules
MVFR
Conditions
Mist
Cloud Levels
  • Few at 300' AGL
  • Few at 1,600' AGL
  • Scattered at 23,000' AGL
Temperature
14°C / 57°F
Dewpoint
13°C / 55°F
Humidity
94%
Altimeter
30.14" Hg
Pressure
1020.62 hPa
Previous

3 hours ago

KTOA 161551Z 00000KT 1/8SM BR VV001 10/10 A3017
Observed
Feb-16 @ 15:51 UTC
Visibility
.13 SM
Flight Rules
LIFR
Conditions
Mist
Cloud Levels
  • Vertical visibility at 100' AGL
Temperature
10°C / 50°F
Dewpoint
10°C / 50°F
Humidity
100%
Altimeter
30.17" Hg
Pressure
1021.72 hPa